Tenes, Algeria
Current Conditions -  °F | °C
As of 7:00 AM on Sunday 21 Dec 2014 (Local Time) from DAOI Reporting Station
Broken Clouds Broken Clouds  
Wind Chill: 10°   Ceiling: 2000
Heat Index: 10°   Visibility: 3mi
Dew Point:   Wind: 0mph
Humidity: 94%   Direction: NA
Pressure: 30.42"   Gusts: NA
Location:  36.51°N, 1.31°E
Report Text: DAOI 210600Z 00000KT 5000 FEW010 BKN020 10/09 Q1030
Loading
Personal Weather Stations






























Interactive Weather Map New forecast layout! Learn more

10-Day Weather Forecast

Advertisements
Track Severe Weather on mobile